DAL1539 KSLC-PHKO
Flight info
| Callsign | DAL1539 |
|---|---|
| Flight time | N/A |
| Altitude | 33000 |
| Route | RUGGD3 EKR DBL J206 HBU/N0458F340 J10 RSK J161 ZUN J102 BOLIC J18 GBN J2 MZB C1156 MALIT C1177 FICKY R578 FIZEL/N0456F360 R578 FITES OKALA KAYAK6 |
| Aircraft | A333/H-SDE3GHIJ2J3J5M1RVWXY/LB2D1 |
Departure
| Time | 2026-05-06 17:24 |
|---|---|
| Airport | Salt Lake City International Airport (KSLC) |
Arrival
| Time | N/A |
|---|---|
| Airport | Ellison Onizuka Kona International Airport at Keāhole (PHKO) |
| Time | Latitude | Longitude | Altitude | Speed | Heading |
|---|---|---|---|---|---|
| 2026-05-06 16:01 | 40.78607 | -111.98888 | 4234 ft | 0 kts | 175° |
| 2026-05-06 17:08 | 40.78608 | -111.98889 | 4234 ft | 2 kts | 175° |
| 2026-05-06 17:08 | 40.78634 | -111.98892 | 4233 ft | 4 kts | 175° |
| 2026-05-06 17:08 | 40.78657 | -111.98895 | 4234 ft | 5 kts | 176° |
| 2026-05-06 17:09 | 40.78679 | -111.98890 | 4232 ft | 5 kts | 235° |
| 2026-05-06 17:09 | 40.78685 | -111.98859 | 4232 ft | 4 kts | 272° |
| 2026-05-06 17:09 | 40.78685 | -111.98829 | 4231 ft | 1 kts | 264° |
| 2026-05-06 17:09 | 40.78685 | -111.98828 | 4231 ft | 1 kts | 264° |
| 2026-05-06 17:15 | 40.78683 | -111.98855 | 4231 ft | 10 kts | 264° |
| 2026-05-06 17:15 | 40.78676 | -111.98944 | 4232 ft | 9 kts | 264° |
| 2026-05-06 17:16 | 40.78669 | -111.99044 | 4235 ft | 14 kts | 264° |
| 2026-05-06 17:16 | 40.78661 | -111.99172 | 4236 ft | 13 kts | 265° |
| 2026-05-06 17:16 | 40.78654 | -111.99281 | 4237 ft | 11 kts | 265° |
| 2026-05-06 17:16 | 40.78618 | -111.99356 | 4236 ft | 10 kts | 198° |
| 2026-05-06 17:17 | 40.78535 | -111.99355 | 4235 ft | 14 kts | 175° |
| 2026-05-06 17:17 | 40.78439 | -111.99345 | 4235 ft | 13 kts | 175° |
| 2026-05-06 17:17 | 40.78348 | -111.99335 | 4233 ft | 13 kts | 175° |
| 2026-05-06 17:17 | 40.78257 | -111.99325 | 4233 ft | 13 kts | 175° |
| 2026-05-06 17:18 | 40.78174 | -111.99316 | 4233 ft | 11 kts | 174° |
| 2026-05-06 17:18 | 40.78105 | -111.99299 | 4234 ft | 9 kts | 167° |
| 2026-05-06 17:18 | 40.78046 | -111.99281 | 4243 ft | 8 kts | 167° |
| 2026-05-06 17:18 | 40.77996 | -111.99270 | 4270 ft | 6 kts | 173° |
| 2026-05-06 17:19 | 40.77962 | -111.99266 | 4271 ft | 4 kts | 174° |
| 2026-05-06 17:19 | 40.77934 | -111.99262 | 4271 ft | 6 kts | 174° |
| 2026-05-06 17:19 | 40.77881 | -111.99255 | 4273 ft | 7 kts | 174° |
| 2026-05-06 17:19 | 40.77838 | -111.99250 | 4274 ft | 5 kts | 175° |
| 2026-05-06 17:20 | 40.77799 | -111.99246 | 4274 ft | 8 kts | 175° |
| 2026-05-06 17:20 | 40.77737 | -111.99238 | 4273 ft | 10 kts | 174° |
| 2026-05-06 17:20 | 40.77666 | -111.99217 | 4273 ft | 11 kts | 161° |
| 2026-05-06 17:20 | 40.77595 | -111.99197 | 4273 ft | 10 kts | 173° |
| 2026-05-06 17:21 | 40.77534 | -111.99197 | 4275 ft | 7 kts | 198° |
| 2026-05-06 17:21 | 40.77504 | -111.99242 | 4275 ft | 6 kts | 244° |
| 2026-05-06 17:21 | 40.77500 | -111.99302 | 4274 ft | 7 kts | 276° |
| 2026-05-06 17:21 | 40.77507 | -111.99372 | 4274 ft | 8 kts | 280° |
| 2026-05-06 17:22 | 40.77518 | -111.99447 | 4275 ft | 8 kts | 274° |
| 2026-05-06 17:22 | 40.77515 | -111.99521 | 4276 ft | 7 kts | 268° |
| 2026-05-06 17:22 | 40.77540 | -111.99552 | 4276 ft | 5 kts | 340° |
| 2026-05-06 17:22 | 40.77578 | -111.99557 | 4276 ft | 6 kts | 354° |
| 2026-05-06 17:23 | 40.77582 | -111.99558 | 4276 ft | 0 kts | 354° |
| 2026-05-06 17:23 | 40.77640 | -111.99565 | 4275 ft | 31 kts | 354° |
| 2026-05-06 17:23 | 40.78040 | -111.99612 | 4267 ft | 84 kts | 355° |
| 2026-05-06 17:23 | 40.78771 | -111.99697 | 4241 ft | 126 kts | 355° |
| 2026-05-06 17:24 | 40.79782 | -111.99814 | 4236 ft | 164 kts | 355° |
| 2026-05-06 17:24 | 40.80981 | -111.99950 | 4509 ft | 176 kts | 354° |
| 2026-05-06 17:24 | 40.82197 | -112.00154 | 5010 ft | 176 kts | 350° |
| 2026-05-06 17:24 | 40.83419 | -112.00376 | 5514 ft | 178 kts | 353° |
| 2026-05-06 17:25 | 40.84700 | -112.00561 | 5833 ft | 193 kts | 354° |
| 2026-05-06 17:25 | 40.86080 | -112.00755 | 6087 ft | 206 kts | 354° |
| 2026-05-06 17:25 | 40.87549 | -112.00976 | 6319 ft | 220 kts | 354° |
| 2026-05-06 17:25 | 40.89125 | -112.01177 | 6501 ft | 236 kts | 356° |
| 2026-05-06 17:26 | 40.90245 | -112.01273 | 6593 ft | 251 kts | 354° |
| 2026-05-06 17:26 | 40.92668 | -112.01766 | 7019 ft | 270 kts | 352° |
| 2026-05-06 17:26 | 40.93898 | -112.01965 | 7525 ft | 269 kts | 354° |
| 2026-05-06 17:26 | 40.95755 | -112.02155 | 8338 ft | 265 kts | 357° |
| 2026-05-06 17:27 | 40.97572 | -112.02271 | 9191 ft | 259 kts | 359° |
| 2026-05-06 17:27 | 40.99347 | -112.02278 | 10041 ft | 253 kts | 359° |
| 2026-05-06 17:27 | 41.01108 | -112.02334 | 10639 ft | 256 kts | 359° |
| 2026-05-06 17:27 | 41.02925 | -112.02168 | 10974 ft | 270 kts | 12° |
| 2026-05-06 17:28 | 41.04666 | -112.01081 | 11242 ft | 289 kts | 38° |
| 2026-05-06 17:28 | 41.05963 | -111.98956 | 11568 ft | 308 kts | 59° |
| 2026-05-06 17:28 | 41.06879 | -111.96295 | 11755 ft | 327 kts | 64° |
| 2026-05-06 17:28 | 41.07790 | -111.93452 | 11929 ft | 343 kts | 64° |
| 2026-05-06 17:29 | 41.08769 | -111.90508 | 12257 ft | 354 kts | 63° |
| 2026-05-06 17:29 | 41.09799 | -111.87513 | 12765 ft | 359 kts | 62° |
| 2026-05-06 17:29 | 41.10827 | -111.84490 | 13371 ft | 362 kts | 64° |
| 2026-05-06 17:29 | 41.11490 | -111.81230 | 13879 ft | 373 kts | 79° |
| 2026-05-06 17:30 | 41.11403 | -111.77757 | 14394 ft | 383 kts | 98° |
| 2026-05-06 17:30 | 41.10479 | -111.74434 | 14931 ft | 391 kts | 117° |
| 2026-05-06 17:30 | 41.08769 | -111.71596 | 15371 ft | 400 kts | 135° |
| 2026-05-06 17:30 | 41.06633 | -111.69199 | 15803 ft | 405 kts | 140° |
| 2026-05-06 17:31 | 41.04413 | -111.66880 | 16257 ft | 408 kts | 140° |
| 2026-05-06 17:31 | 41.02171 | -111.64546 | 16724 ft | 412 kts | 140° |
| 2026-05-06 17:31 | 40.99914 | -111.62183 | 17185 ft | 415 kts | 140° |
| 2026-05-06 17:31 | 40.97643 | -111.59796 | 17633 ft | 419 kts | 140° |
| 2026-05-06 17:32 | 40.95357 | -111.57377 | 18041 ft | 423 kts | 140° |
| 2026-05-06 17:32 | 40.93056 | -111.54946 | 18483 ft | 424 kts | 140° |
| 2026-05-06 17:32 | 40.90750 | -111.52506 | 18906 ft | 426 kts | 140° |
| 2026-05-06 17:32 | 40.88430 | -111.50052 | 19282 ft | 428 kts | 140° |
| 2026-05-06 17:33 | 40.86097 | -111.47584 | 19680 ft | 431 kts | 140° |
| 2026-05-06 17:33 | 40.83751 | -111.45103 | 20081 ft | 433 kts | 139° |
| 2026-05-06 17:33 | 40.81518 | -111.42435 | 20455 ft | 433 kts | 130° |
| 2026-05-06 17:33 | 40.79683 | -111.39296 | 20827 ft | 432 kts | 118° |
| 2026-05-06 17:34 | 40.78389 | -111.35733 | 21201 ft | 429 kts | 106° |
| 2026-05-06 17:34 | 40.77484 | -111.32048 | 21619 ft | 429 kts | 103° |
| 2026-05-06 17:34 | 40.76640 | -111.28260 | 21998 ft | 431 kts | 102° |
| 2026-05-06 17:34 | 40.75797 | -111.24452 | 22375 ft | 434 kts | 102° |
| 2026-05-06 17:35 | 40.74943 | -111.20631 | 22759 ft | 435 kts | 102° |
| 2026-05-06 17:35 | 40.74079 | -111.16793 | 23119 ft | 438 kts | 102° |
| 2026-05-06 17:35 | 40.73204 | -111.12936 | 23462 ft | 440 kts | 102° |
| 2026-05-06 17:36 | 40.71422 | -111.05109 | 23866 ft | 449 kts | 103° |
| 2026-05-06 17:36 | 40.70520 | -111.01165 | 24184 ft | 450 kts | 102° |
| 2026-05-06 17:36 | 40.69613 | -110.97213 | 24508 ft | 451 kts | 102° |
| 2026-05-06 17:36 | 40.68703 | -110.93256 | 24784 ft | 453 kts | 102° |
| 2026-05-06 17:37 | 40.67788 | -110.89275 | 25046 ft | 455 kts | 103° |
| 2026-05-06 17:37 | 40.66870 | -110.85296 | 25437 ft | 453 kts | 102° |
| 2026-05-06 17:37 | 40.65954 | -110.81327 | 25773 ft | 454 kts | 102° |
| 2026-05-06 17:37 | 40.65032 | -110.77337 | 25975 ft | 458 kts | 102° |
| 2026-05-06 17:38 | 40.64101 | -110.73313 | 26190 ft | 461 kts | 102° |
| 2026-05-06 17:38 | 40.63163 | -110.69273 | 26455 ft | 462 kts | 102° |
| 2026-05-06 17:38 | 40.62221 | -110.65222 | 26738 ft | 464 kts | 102° |
| 2026-05-06 17:38 | 40.61274 | -110.61158 | 26994 ft | 465 kts | 102° |
| 2026-05-06 17:39 | 40.60322 | -110.57081 | 27245 ft | 467 kts | 102° |
| 2026-05-06 17:39 | 40.59365 | -110.52990 | 27490 ft | 469 kts | 102° |
| 2026-05-06 17:39 | 40.58403 | -110.48883 | 27729 ft | 471 kts | 102° |
| 2026-05-06 17:39 | 40.57436 | -110.44760 | 27977 ft | 474 kts | 102° |
| 2026-05-06 17:40 | 40.56459 | -110.40599 | 28096 ft | 478 kts | 102° |
| 2026-05-06 17:40 | 40.55474 | -110.36422 | 28398 ft | 478 kts | 103° |
| 2026-05-06 17:40 | 40.54489 | -110.32250 | 28699 ft | 478 kts | 102° |
| 2026-05-06 17:40 | 40.53542 | -110.28055 | 28904 ft | 479 kts | 100° |
| 2026-05-06 17:41 | 40.52722 | -110.23811 | 29129 ft | 480 kts | 98° |
| 2026-05-06 17:41 | 40.51929 | -110.19548 | 29354 ft | 481 kts | 98° |
| 2026-05-06 17:41 | 40.51134 | -110.15272 | 29580 ft | 482 kts | 98° |
| 2026-05-06 17:41 | 40.50331 | -110.10986 | 29736 ft | 486 kts | 98° |
| 2026-05-06 17:42 | 40.49517 | -110.06658 | 29857 ft | 489 kts | 98° |
| 2026-05-06 17:42 | 40.48695 | -110.02312 | 30061 ft | 491 kts | 98° |
| 2026-05-06 17:42 | 40.47880 | -109.98018 | 30267 ft | 491 kts | 99° |
| 2026-05-06 17:42 | 40.47051 | -109.93662 | 30464 ft | 493 kts | 99° |
| 2026-05-06 17:43 | 40.46218 | -109.89294 | 30650 ft | 494 kts | 99° |
| 2026-05-06 17:43 | 40.45381 | -109.84915 | 30824 ft | 495 kts | 99° |
| 2026-05-06 17:43 | 40.44543 | -109.80544 | 31126 ft | 493 kts | 99° |
| 2026-05-06 17:43 | 40.43704 | -109.76179 | 31310 ft | 495 kts | 99° |
| 2026-05-06 17:44 | 40.42860 | -109.71789 | 31444 ft | 497 kts | 99° |
| 2026-05-06 17:44 | 40.42013 | -109.67397 | 31787 ft | 496 kts | 99° |
| 2026-05-06 17:44 | 40.41167 | -109.63027 | 32069 ft | 495 kts | 99° |
| 2026-05-06 17:44 | 40.40318 | -109.58647 | 32322 ft | 494 kts | 99° |
| 2026-05-06 17:45 | 40.39473 | -109.54294 | 32559 ft | 493 kts | 99° |
| 2026-05-06 17:45 | 40.38624 | -109.49928 | 32818 ft | 493 kts | 100° |
| 2026-05-06 17:45 | 40.37777 | -109.45588 | 33044 ft | 492 kts | 100° |
| 2026-05-06 17:45 | 40.36928 | -109.41243 | 33267 ft | 492 kts | 100° |
| 2026-05-06 17:46 | 40.36078 | -109.36900 | 33455 ft | 491 kts | 100° |
| 2026-05-06 17:46 | 40.35227 | -109.32564 | 33670 ft | 491 kts | 101° |
| 2026-05-06 17:46 | 40.34375 | -109.28235 | 33877 ft | 489 kts | 101° |
| 2026-05-06 17:46 | 40.33527 | -109.23937 | 34198 ft | 485 kts | 101° |
| 2026-05-06 17:47 | 40.32681 | -109.19656 | 34303 ft | 486 kts | 101° |
| 2026-05-06 17:47 | 40.31833 | -109.15364 | 34395 ft | 487 kts | 101° |
| 2026-05-06 17:47 | 40.30981 | -109.11068 | 34542 ft | 488 kts | 101° |
| 2026-05-06 17:47 | 40.30123 | -109.06748 | 34519 ft | 492 kts | 101° |
| 2026-05-06 17:48 | 40.28391 | -108.98062 | 34792 ft | 493 kts | 102° |
| 2026-05-06 17:48 | 40.27524 | -108.93732 | 34932 ft | 493 kts | 102° |
| 2026-05-06 17:48 | 40.26653 | -108.89391 | 35051 ft | 493 kts | 102° |
| 2026-05-06 17:49 | 40.25781 | -108.85048 | 35170 ft | 494 kts | 102° |
| 2026-05-06 17:49 | 40.24905 | -108.80701 | 35306 ft | 494 kts | 102° |
| 2026-05-06 17:49 | 40.24028 | -108.76352 | 35424 ft | 495 kts | 102° |
| 2026-05-06 17:49 | 40.23144 | -108.71982 | 35402 ft | 498 kts | 103° |
| 2026-05-06 17:50 | 40.22257 | -108.67602 | 35592 ft | 497 kts | 103° |
| 2026-05-06 17:50 | 40.21369 | -108.63233 | 35738 ft | 497 kts | 103° |
| 2026-05-06 17:50 | 40.20480 | -108.58864 | 35847 ft | 497 kts | 103° |
| 2026-05-06 17:50 | 40.19588 | -108.54492 | 35962 ft | 498 kts | 103° |
| 2026-05-06 17:51 | 40.17798 | -108.45739 | 36163 ft | 498 kts | 103° |
| 2026-05-06 17:51 | 40.16900 | -108.41360 | 36288 ft | 499 kts | 104° |
| 2026-05-06 17:51 | 40.15998 | -108.36977 | 36328 ft | 501 kts | 104° |
| 2026-05-06 17:52 | 40.14192 | -108.28222 | 36529 ft | 502 kts | 104° |
| 2026-05-06 17:52 | 40.13282 | -108.23823 | 36672 ft | 502 kts | 104° |
| 2026-05-06 17:52 | 40.12369 | -108.19424 | 36767 ft | 502 kts | 104° |
| 2026-05-06 17:53 | 40.10543 | -108.10646 | 36842 ft | 499 kts | 105° |
| 2026-05-06 17:53 | 40.08728 | -108.01956 | 36853 ft | 494 kts | 105° |
| 2026-05-06 17:54 | 40.06644 | -107.93434 | 36952 ft | 493 kts | 116° |
| 2026-05-06 17:54 | 40.04138 | -107.88053 | 36956 ft | 490 kts | 127° |
| 2026-05-06 17:55 | 40.02147 | -107.84550 | 36954 ft | 491 kts | 129° |
| 2026-05-06 17:55 | 39.97897 | -107.77565 | 36858 ft | 491 kts | 130° |
| 2026-05-06 17:56 | 39.93620 | -107.70633 | 36855 ft | 489 kts | 130° |
| 2026-05-06 17:56 | 39.89387 | -107.63709 | 36843 ft | 488 kts | 130° |
| 2026-05-06 17:57 | 39.85181 | -107.56769 | 36846 ft | 489 kts | 130° |
| 2026-05-06 17:57 | 39.83187 | -107.53478 | 36851 ft | 489 kts | 130° |
| 2026-05-06 17:59 | 39.81409 | -107.50547 | 36839 ft | 489 kts | 130° |
| 2026-05-06 17:59 | 39.77201 | -107.43626 | 36836 ft | 488 kts | 130° |
| 2026-05-06 18:00 | 39.72988 | -107.36714 | 36826 ft | 488 kts | 130° |
| 2026-05-06 18:00 | 39.68748 | -107.29778 | 36823 ft | 491 kts | 131° |
| 2026-05-06 18:01 | 39.64489 | -107.22830 | 36876 ft | 491 kts | 131° |
| 2026-05-06 18:01 | 39.60232 | -107.15919 | 36852 ft | 490 kts | 131° |